Comal — WDC2662 — position and weather

sailwx.info

Track history (hours):
 
Tides and Currents Weather Stations Pressure Air Temp Water Temp Dewpoint Dewpoint Depression Visibility Wind Speed Wind Dir Waves Ship Positions

Comal

Owner: Kirby Inland Marine LP, Houston, TX. More information available from US FCC via Universal Licensing System and Coast Guard Vessel Documentation Center.

Last reported at 2017-Sep-22 01:00 UTC. Time now 2017-Sep-24 08:45 UTC.
Position N 29°34' W 094°56'.

Length 94 m; draft 1.8 m.

Type: . MMSI: 366996140.

Date/timePositionNaut miles runAvg speedWind from/ knotsBaromVisibWave heightAir tempDewpointWater temp
2017-Sep-22 01:00N 29°34' W 094°56'3 4.9
2017-Sep-22 00:27N 29°37' W 094°57'2 5.2
2017-Sep-22 00:00N 29°39' W 094°58'3 5.2
2017-Sep-21 23:30N 29°41' W 094°59'2 4.8
2017-Sep-21 23:00N 29°43' W 095°01'2 4.6
2017-Sep-21 22:30N 29°44' W 095°03'2 2.1
2017-Sep-21 21:21N 29°46' W 095°05'0 0.0
2017-Sep-21 13:47N 29°46' W 095°05'0 0.4
2017-Sep-21 13:20N 29°46' W 095°05'0 0.4
2017-Sep-21 12:01N 29°46' W 095°06'0 1.6
2017-Sep-21 11:54N 29°46' W 095°05'0 0.0
2017-Sep-21 01:48N 29°46' W 095°06'0 0.0
2017-Sep-21 01:28N 29°46' W 095°06'0 0.4
2017-Sep-21 00:54N 29°46' W 095°05'0 0.0
2017-Sep-20 17:24N 29°46' W 095°05'0 0.2
2017-Sep-20 16:57N 29°46' W 095°05'0 0.1
2017-Sep-20 16:00N 29°46' W 095°05'0 0.0
2017-Sep-20 14:59N 29°46' W 095°05'0 0.0
2017-Sep-20 12:55N 29°46' W 095°05'0 0.0
2017-Sep-19 23:48N 29°46' W 095°05'1 0.1
2017-Sep-19 17:52N 29°46' W 095°06'1 1.0
2017-Sep-19 17:17N 29°46' W 095°05'0 0.0
2017-Sep-19 14:32N 29°46' W 095°05'0 0.0
2017-Sep-18 23:08N 29°46' W 095°06'0 0.0
2017-Sep-18 20:17N 29°46' W 095°06'1 1.2
2017-Sep-18 19:41N 29°46' W 095°07'0 0.0
2017-Sep-18 19:27N 29°46' W 095°07'0 0.0
2017-Sep-18 18:56N 29°46' W 095°07'0 0.0
2017-Sep-18 18:23N 29°46' W 095°07'1 0.3
2017-Sep-18 15:32N 29°45' W 095°06'0 4.9
2017-Sep-18 15:30N 29°46' W 095°06'1 0.4
2017-Sep-18 13:53N 29°46' W 095°06'1 1.4
2017-Sep-18 13:30N 29°46' W 095°05'0 0.0
2017-Sep-18 04:30N 29°46' W 095°06'0 0.0
2017-Sep-18 03:50N 29°46' W 095°06'0 0.1
2017-Sep-17 22:12N 29°46' W 095°05'0 0.1
2017-Sep-17 19:29N 29°46' W 095°06'0 0.1
2017-Sep-17 14:51N 29°46' W 095°05'0 0.0
2017-Sep-17 07:05N 29°46' W 095°05'0 0.4
2017-Sep-17 06:52N 29°46' W 095°05'0 0.7
2017-Sep-17 06:15N 29°46' W 095°06'0 0.0
2017-Sep-16 22:24N 29°46' W 095°06'0 0.0
2017-Sep-16 18:50N 29°46' W 095°06'0 0.0
2017-Sep-16 14:19N 29°46' W 095°06'0 0.6
2017-Sep-16 13:56N 29°46' W 095°05'0 0.4
2017-Sep-16 13:00N 29°46' W 095°06'0 0.0
2017-Sep-15 23:00N 29°46' W 095°05'0 0.4
2017-Sep-15 22:30N 29°46' W 095°06'0 0.0
2017-Sep-15 12:04N 29°46' W 095°05'0 2.0
2017-Sep-15 12:00N 29°46' W 095°05'0 0.0
2017-Sep-15 08:51N 29°46' W 095°05'0 0.0
2017-Sep-14 23:02N 29°46' W 095°05'0 0.0
2017-Sep-14 13:19N 29°46' W 095°06'0 0.9
2017-Sep-14 12:59N 29°46' W 095°06'0 0.0
2017-Sep-13 22:56N 29°46' W 095°05'0 0.3
2017-Sep-13 22:18N 29°46' W 095°06'0 0.0
2017-Sep-13 14:30N 29°46' W 095°05'0 0.0
2017-Sep-13 08:16N 29°46' W 095°06'0 0.3
2017-Sep-13 07:18N 29°46' W 095°06'0 0.1
2017-Sep-12 23:26N 29°46' W 095°05'1 0.2
2017-Sep-12 20:29N 29°46' W 095°06'1 0.3
2017-Sep-12 18:06N 29°46' W 095°05'1 0.1
2017-Sep-12 13:33N 29°46' W 095°06'0 0.5
2017-Sep-12 12:44N 29°46' W 095°06'0 1.2
2017-Sep-12 12:30N 29°46' W 095°06'0 0.0
2017-Sep-12 07:42N 29°46' W 095°06'0 0.0
2017-Sep-12 07:28N 29°46' W 095°06'0 0.0
2017-Sep-12 07:00N 29°46' W 095°06'1 0.3
2017-Sep-12 05:17N 29°46' W 095°05'0 0.6
2017-Sep-12 04:45N 29°46' W 095°06'0 0.0
2017-Sep-12 04:16N 29°46' W 095°06'0 0.0
2017-Sep-12 01:08N 29°46' W 095°06'  
Track history (hours):
 
Tides and Currents Weather Stations Pressure Air Temp Water Temp Dewpoint Dewpoint Depression Visibility Wind Speed Wind Dir Waves Ship Positions

Comal

Owner: Kirby Inland Marine LP, Houston, TX. More information available from US FCC via Universal Licensing System and Coast Guard Vessel Documentation Center.

Last reported at 2017-Sep-22 01:00 UTC. Time now 2017-Sep-24 08:45 UTC.
Position N 29°34' W 094°56'.

Length 94 m; draft 1.8 m.

Type: . MMSI: 366996140.

Date/timePositionNaut miles runAvg speedWind from/ knotsBaromVisibWave heightAir tempDewpointWater temp
2017-Sep-22 01:00N 29°34' W 094°56'3 4.9
2017-Sep-22 00:27N 29°37' W 094°57'2 5.2
2017-Sep-22 00:00N 29°39' W 094°58'3 5.2
2017-Sep-21 23:30N 29°41' W 094°59'2 4.8
2017-Sep-21 23:00N 29°43' W 095°01'2 4.6
2017-Sep-21 22:30N 29°44' W 095°03'2 2.1
2017-Sep-21 21:21N 29°46' W 095°05'0 0.0
2017-Sep-21 13:47N 29°46' W 095°05'0 0.4
2017-Sep-21 13:20N 29°46' W 095°05'0 0.4
2017-Sep-21 12:01N 29°46' W 095°06'0 1.6
2017-Sep-21 11:54N 29°46' W 095°05'0 0.0
2017-Sep-21 01:48N 29°46' W 095°06'0 0.0
2017-Sep-21 01:28N 29°46' W 095°06'0 0.4
2017-Sep-21 00:54N 29°46' W 095°05'0 0.0
2017-Sep-20 17:24N 29°46' W 095°05'0 0.2
2017-Sep-20 16:57N 29°46' W 095°05'0 0.1
2017-Sep-20 16:00N 29°46' W 095°05'0 0.0
2017-Sep-20 14:59N 29°46' W 095°05'0 0.0
2017-Sep-20 12:55N 29°46' W 095°05'0 0.0
2017-Sep-19 23:48N 29°46' W 095°05'1 0.1
2017-Sep-19 17:52N 29°46' W 095°06'1 1.0
2017-Sep-19 17:17N 29°46' W 095°05'0 0.0
2017-Sep-19 14:32N 29°46' W 095°05'0 0.0
2017-Sep-18 23:08N 29°46' W 095°06'0 0.0
2017-Sep-18 20:17N 29°46' W 095°06'1 1.2
2017-Sep-18 19:41N 29°46' W 095°07'0 0.0
2017-Sep-18 19:27N 29°46' W 095°07'0 0.0
2017-Sep-18 18:56N 29°46' W 095°07'0 0.0
2017-Sep-18 18:23N 29°46' W 095°07'1 0.3
2017-Sep-18 15:32N 29°45' W 095°06'0 4.9
2017-Sep-18 15:30N 29°46' W 095°06'1 0.4
2017-Sep-18 13:53N 29°46' W 095°06'1 1.4
2017-Sep-18 13:30N 29°46' W 095°05'0 0.0
2017-Sep-18 04:30N 29°46' W 095°06'0 0.0
2017-Sep-18 03:50N 29°46' W 095°06'0 0.1
2017-Sep-17 22:12N 29°46' W 095°05'0 0.1
2017-Sep-17 19:29N 29°46' W 095°06'0 0.1
2017-Sep-17 14:51N 29°46' W 095°05'0 0.0
2017-Sep-17 07:05N 29°46' W 095°05'0 0.4
2017-Sep-17 06:52N 29°46' W 095°05'0 0.7
2017-Sep-17 06:15N 29°46' W 095°06'0 0.0
2017-Sep-16 22:24N 29°46' W 095°06'0 0.0
2017-Sep-16 18:50N 29°46' W 095°06'0 0.0
2017-Sep-16 14:19N 29°46' W 095°06'0 0.6
2017-Sep-16 13:56N 29°46' W 095°05'0 0.4
2017-Sep-16 13:00N 29°46' W 095°06'0 0.0
2017-Sep-15 23:00N 29°46' W 095°05'0 0.4
2017-Sep-15 22:30N 29°46' W 095°06'0 0.0
2017-Sep-15 12:04N 29°46' W 095°05'0 2.0
2017-Sep-15 12:00N 29°46' W 095°05'0 0.0
2017-Sep-15 08:51N 29°46' W 095°05'0 0.0
2017-Sep-14 23:02N 29°46' W 095°05'0 0.0
2017-Sep-14 13:19N 29°46' W 095°06'0 0.9
2017-Sep-14 12:59N 29°46' W 095°06'0 0.0
2017-Sep-13 22:56N 29°46' W 095°05'0 0.3
2017-Sep-13 22:18N 29°46' W 095°06'0 0.0
2017-Sep-13 14:30N 29°46' W 095°05'0 0.0
2017-Sep-13 08:16N 29°46' W 095°06'0 0.3
2017-Sep-13 07:18N 29°46' W 095°06'0 0.1
2017-Sep-12 23:26N 29°46' W 095°05'1 0.2
2017-Sep-12 20:29N 29°46' W 095°06'1 0.3
2017-Sep-12 18:06N 29°46' W 095°05'1 0.1
2017-Sep-12 13:33N 29°46' W 095°06'0 0.5
2017-Sep-12 12:44N 29°46' W 095°06'0 1.2
2017-Sep-12 12:30N 29°46' W 095°06'0 0.0
2017-Sep-12 07:42N 29°46' W 095°06'0 0.0
2017-Sep-12 07:28N 29°46' W 095°06'0 0.0
2017-Sep-12 07:00N 29°46' W 095°06'1 0.3
2017-Sep-12 05:17N 29°46' W 095°05'0 0.6
2017-Sep-12 04:45N 29°46' W 095°06'0 0.0
2017-Sep-12 04:16N 29°46' W 095°06'0 0.0
2017-Sep-12 01:08N 29°46' W 095°06'  

Dump ship's entire track history